Time;durP1;ratioP1;P1;durP2;ratioP2;P2;SDS_P1;SDS_P2;PMS_P1;PMS_P2;Temp;Humidity;BMP_temperature;BMP_pressure;BME280_temperature;BME280_humidity;BME280_pressure;Samples;Min_cycle;Max_cycle;Signal;HPM_P1;HPM_P2
2022/06/02 00:02:28;;;;;;;9.57;6.03;;;;;;;13.00;73.72;101864.44;5018911;28;20042;-48
2022/06/02 00:05:50;;;;;;;8.68;6.43;;;;;;;12.94;74.05;101860.84;5031780;28;20061;-46
2022/06/02 00:08:53;;;;;;;10.27;6.55;;;;;;;12.90;74.50;101873.38;5014196;28;20045;-47
2022/06/02 00:12:12;;;;;;;9.00;6.63;;;;;;;12.89;74.58;101873.63;5013567;28;20515;-48
2022/06/02 00:15:15;;;;;;;10.05;6.30;;;;;;;12.86;74.22;101874.16;5015339;28;20053;-47
2022/06/02 00:18:27;;;;;;;10.23;6.68;;;;;;;12.84;74.13;101877.13;5018839;28;20050;-45
2022/06/02 00:21:35;;;;;;;9.80;6.63;;;;;;;12.84;74.81;101876.31;5008396;28;20060;-44
2022/06/02 00:24:32;;;;;;;9.95;6.80;;;;;;;12.86;74.52;101879.63;5006851;28;20046;-46
2022/06/02 00:27:38;;;;;;;11.40;6.90;;;;;;;12.84;74.85;101884.53;5028918;28;20053;-47
2022/06/02 00:30:34;;;;;;;13.07;6.78;;;;;;;12.82;75.07;101878.47;5019386;28;20057;-46
2022/06/02 00:33:28;;;;;;;11.10;6.93;;;;;;;12.82;75.46;101881.22;5019832;28;20072;-48
2022/06/02 00:36:21;;;;;;;10.90;6.93;;;;;;;12.83;75.06;101885.63;5032497;28;20038;-46
2022/06/02 00:39:09;;;;;;;11.93;6.88;;;;;;;12.82;75.20;101889.41;5018272;28;20054;-50
2022/06/02 00:42:24;;;;;;;10.77;7.22;;;;;;;12.77;75.45;101884.72;5008012;28;20054;-48
2022/06/02 00:45:15;;;;;;;10.00;7.00;;;;;;;12.74;75.98;101885.25;5024282;28;20052;-52
2022/06/02 00:48:13;;;;;;;13.93;7.00;;;;;;;12.71;75.89;101888.50;5035829;28;20045;-52
2022/06/02 00:51:02;;;;;;;11.43;7.63;;;;;;;12.67;75.97;101892.81;5033465;28;20433;-51
2022/06/02 00:57:48;;;;;;;11.13;7.72;;;;;;;12.58;76.15;101889.72;5034183;28;20046;-50
2022/06/02 01:00:49;;;;;;;14.10;7.90;;;;;;;12.56;76.37;101900.09;5032315;28;20046;-53
2022/06/02 01:03:47;;;;;;;13.73;7.95;;;;;;;12.55;77.00;101892.94;5039938;28;20123;-50
2022/06/02 01:06:41;;;;;;;13.05;7.65;;;;;;;12.53;76.80;101892.38;5041479;28;20049;-52
2022/06/02 01:10:24;;;;;;;11.18;8.00;;;;;;;12.51;76.77;101883.63;5029805;28;20053;-51
2022/06/02 01:13:31;;;;;;;10.77;7.82;;;;;;;12.51;77.29;101889.09;5016655;28;20057;-49
2022/06/02 01:16:21;;;;;;;11.63;7.95;;;;;;;12.51;76.83;101889.91;5025923;28;20054;-49
2022/06/02 01:19:24;;;;;;;11.68;8.35;;;;;;;12.52;76.66;101888.00;5022285;28;20046;-47
2022/06/02 01:22:38;;;;;;;11.68;7.90;;;;;;;12.48;77.23;101884.97;5026130;28;20500;-45
2022/06/02 01:25:29;;;;;;;11.85;8.32;;;;;;;12.49;76.93;101885.78;5018038;28;20050;-47
2022/06/02 01:28:41;;;;;;;17.48;8.40;;;;;;;12.49;77.04;101886.59;5026486;28;20048;-47
2022/06/02 01:31:48;;;;;;;12.80;8.50;;;;;;;12.47;77.29;101888.75;5025718;28;20053;-47
2022/06/02 01:34:58;;;;;;;11.25;8.88;;;;;;;12.39;77.06;101886.47;5027638;28;20045;-47
2022/06/02 01:37:58;;;;;;;14.05;9.20;;;;;;;12.35;77.42;101882.59;5034525;28;20042;-45
2022/06/02 01:41:12;;;;;;;13.73;9.20;;;;;;;12.34;77.96;101884.50;5028091;28;20412;-47
2022/06/02 01:44:03;;;;;;;16.42;9.23;;;;;;;12.34;78.50;101884.50;5032218;28;20492;-46
2022/06/02 01:47:04;;;;;;;12.60;8.95;;;;;;;12.34;77.82;101881.78;5024335;28;20065;-46
2022/06/02 01:50:13;;;;;;;11.07;9.23;;;;;;;12.28;78.46;101885.50;5020267;28;20045;-47
2022/06/02 01:53:07;;;;;;;14.52;9.30;;;;;;;12.28;78.17;101884.69;5032654;28;20068;-47
2022/06/02 01:56:19;;;;;;;11.90;9.52;;;;;;;12.28;77.80;101885.50;5020947;28;20054;-49
2022/06/02 01:59:27;;;;;;;11.75;9.27;;;;;;;12.24;77.83;101884.38;5014185;28;20057;-47
2022/06/02 02:02:32;;;;;;;13.15;9.80;;;;;;;12.22;77.99;101877.47;5014158;28;20049;-47
2022/06/02 02:05:48;;;;;;;15.30;9.57;;;;;;;12.20;78.93;101869.56;5016102;28;20409;-47
2022/06/02 02:08:43;;;;;;;12.82;9.50;;;;;;;12.19;78.72;101881.56;5016005;28;20049;-49
2022/06/02 02:11:49;;;;;;;15.02;9.20;;;;;;;12.18;78.92;101879.91;5022941;28;20095;-49
2022/06/02 02:15:04;;;;;;;13.00;9.55;;;;;;;12.18;78.95;101879.91;5022830;28;20547;-48
2022/06/02 02:18:26;;;;;;;14.55;9.65;;;;;;;12.17;78.77;101888.34;5033963;28;20500;-47
2022/06/02 02:21:22;;;;;;;12.43;10.18;;;;;;;12.18;79.10;101885.38;5028286;28;20423;-50
2022/06/02 02:24:34;;;;;;;12.95;10.02;;;;;;;12.16;78.85;101884.78;5024329;28;20088;-48
2022/06/02 02:27:25;;;;;;;13.57;10.32;;;;;;;12.14;78.68;101889.69;5032735;28;20495;-48
2022/06/02 02:30:12;;;;;;;11.45;9.63;;;;;;;12.13;79.58;101894.31;5021517;28;20409;-49
2022/06/02 02:33:25;;;;;;;14.52;10.77;;;;;;;12.11;78.88;101891.00;5022539;28;20049;-49
2022/06/02 02:36:37;;;;;;;15.88;10.63;;;;;;;12.07;79.43;101889.84;5028498;28;20052;-48
2022/06/02 02:39:46;;;;;;;15.63;10.68;;;;;;;12.05;79.22;101893.91;5030647;28;20412;-47
2022/06/02 02:42:40;;;;;;;12.07;10.18;;;;;;;12.01;79.19;101892.78;5022687;28;20050;-47
2022/06/02 02:46:05;;;;;;;14.98;11.68;;;;;;;11.99;78.70;101893.03;5013126;28;20054;-48
2022/06/02 02:48:59;;;;;;;13.23;10.60;;;;;;;11.96;79.98;101893.53;5026760;28;20045;-49
2022/06/02 02:52:11;;;;;;;13.75;10.80;;;;;;;11.96;79.49;101896.28;5031965;28;20045;-49
2022/06/02 02:55:03;;;;;;;15.73;11.57;;;;;;;11.96;79.38;101903.66;5000811;28;20046;-48
2022/06/02 02:58:21;;;;;;;14.50;11.10;;;;;;;11.91;78.89;101897.03;5028989;28;20068;-47
2022/06/02 03:01:18;;;;;;;16.15;11.00;;;;;;;11.90;79.68;101900.81;5024315;28;20049;-48
2022/06/02 03:04:08;;;;;;;13.93;11.10;;;;;;;11.91;79.59;101909.84;5023827;28;20068;-49
2022/06/02 03:06:56;;;;;;;12.35;9.82;;;;;;;11.94;79.72;101907.44;5022663;28;20052;-47
2022/06/02 03:10:08;;;;;;;13.77;9.73;;;;;;;11.96;80.30;101920.03;5033827;28;20396;-50
2022/06/02 03:13:04;;;;;;;13.55;10.00;;;;;;;11.93;79.50;101915.91;5023321;28;20046;-49
2022/06/02 03:16:07;;;;;;;13.18;10.35;;;;;;;11.88;79.09;101913.91;5027678;28;20049;-43
2022/06/02 03:19:19;;;;;;;12.40;10.35;;;;;;;11.83;79.69;101921.97;5014621;28;20038;-50
2022/06/02 03:22:16;;;;;;;13.77;9.32;;;;;;;11.82;79.17;101920.34;5019748;28;20060;-49
2022/06/02 03:25:20;;;;;;;14.70;9.40;;;;;;;11.81;79.04;101929.63;5030471;28;20041;-50
2022/06/02 03:28:21;;;;;;;14.13;9.63;;;;;;;11.77;79.49;101933.91;5032053;28;20072;-49
2022/06/02 03:31:24;;;;;;;14.32;9.85;;;;;;;11.78;79.36;101935.56;5029941;28;20056;-46
2022/06/02 03:34:28;;;;;;;13.00;9.80;;;;;;;11.79;79.64;101942.69;5033245;28;20500;-50
2022/06/02 03:37:25;;;;;;;16.42;11.43;;;;;;;11.81;79.22;101946.00;5022895;28;20053;-50
2022/06/02 03:40:02;;;;;;;16.65;10.77;;;;;;;11.78;79.66;101943.75;5022078;28;20045;-50
2022/06/02 03:43:08;;;;;;;12.93;10.55;;;;;;;11.73;79.69;101947.22;5033067;28;20038;-48
2022/06/02 03:46:25;;;;;;;14.52;10.60;;;;;;;11.72;80.11;101953.75;5028936;28;20042;-47
2022/06/02 03:49:34;;;;;;;15.25;10.48;;;;;;;11.76;79.50;101953.25;5018542;28;20493;-46
2022/06/02 03:52:44;;;;;;;15.07;10.50;;;;;;;11.76;79.95;101954.09;5025860;28;20056;-49
2022/06/02 03:55:37;;;;;;;15.25;11.07;;;;;;;11.77;80.15;101958.47;5024450;28;20053;-50
2022/06/02 03:58:40;;;;;;;15.27;9.77;;;;;;;11.76;80.16;101956.84;5021185;28;20050;-49
2022/06/02 04:01:37;;;;;;;13.85;10.85;;;;;;;11.77;81.05;101963.13;5027746;28;20049;-47
2022/06/02 04:04:40;;;;;;;16.27;10.05;;;;;;;11.75;80.42;101955.16;5031083;28;20080;-49
2022/06/02 04:07:46;;;;;;;12.75;10.48;;;;;;;11.73;81.06;101960.88;5018494;28;20052;-48
2022/06/02 04:10:46;;;;;;;14.70;10.63;;;;;;;11.79;80.95;101959.06;5020556;28;20041;-49
2022/06/02 04:13:39;;;;;;;15.40;10.65;;;;;;;11.81;80.53;101962.38;5018518;28;20439;-51
2022/06/02 04:16:45;;;;;;;15.20;10.20;;;;;;;11.81;80.28;101961.53;5036475;28;20045;-48
2022/06/02 04:23:18;;;;;;;13.07;10.73;;;;;;;11.81;80.68;101978.75;5031782;28;20045;-48
2022/06/02 04:26:05;;;;;;;15.50;11.65;;;;;;;11.79;80.94;101974.63;5023627;28;20038;-51
2022/06/02 04:29:27;;;;;;;16.08;10.68;;;;;;;11.80;80.67;101979.81;5017786;28;20050;-50
2022/06/02 04:32:39;;;;;;;18.02;11.57;;;;;;;11.83;81.25;101982.03;5034643;28;20053;-49
2022/06/02 04:36:04;;;;;;;13.63;10.32;;;;;;;11.84;80.86;101980.16;5021233;28;20061;-48
2022/06/02 04:39:07;;;;;;;;;;;;;;;11.84;80.18;101982.91;5029130;28;20081;-46
2022/06/02 04:42:40;;;;;;;15.70;11.18;;;;;;;11.82;80.47;101988.59;5031594;28;19925;-50
2022/06/02 04:45:40;;;;;;;16.20;11.40;;;;;;;11.80;81.02;101988.00;5040306;28;20048;-55
2022/06/02 04:48:51;;;;;;;15.68;10.88;;;;;;;11.80;81.54;101996.22;5045715;28;20483;-54
2022/06/02 04:51:57;;;;;;;17.48;11.55;;;;;;;11.79;81.49;102000.03;5018741;28;20401;-46
2022/06/02 04:55:00;;;;;;;18.33;12.85;;;;;;;11.75;81.70;102001.59;5024196;28;20045;-51
2022/06/02 04:57:57;;;;;;;18.73;13.15;;;;;;;11.71;82.12;102001.25;5038374;28;20054;-49
2022/06/02 05:01:02;;;;;;;19.25;13.65;;;;;;;11.67;83.02;102005.56;5022838;28;20060;-47
2022/06/02 05:04:09;;;;;;;22.63;13.40;;;;;;;11.63;82.83;102003.56;5023798;28;20087;-48
2022/06/02 05:07:23;;;;;;;19.48;11.55;;;;;;;11.70;82.73;102009.69;5027013;28;20121;-47
2022/06/02 05:10:56;;;;;;;14.68;12.07;;;;;;;11.71;83.00;102014.06;5032757;28;20411;-49
2022/06/02 05:13:54;;;;;;;17.40;11.95;;;;;;;11.70;83.11;102013.25;5024542;28;20472;-50
2022/06/02 05:16:46;;;;;;;19.75;13.27;;;;;;;11.70;84.20;102009.69;5033851;28;20041;-49
2022/06/02 05:19:52;;;;;;;16.55;12.90;;;;;;;11.65;84.02;102018.63;5030099;28;20056;-48
2022/06/02 05:22:51;;;;;;;17.33;13.07;;;;;;;11.64;85.00;102008.78;5027624;28;20049;-48
2022/06/02 05:26:04;;;;;;;21.48;13.68;;;;;;;11.63;85.76;102009.03;5021277;28;20144;-53
2022/06/02 05:29:35;;;;;;;17.27;14.18;;;;;;;11.57;86.86;102010.84;4321869;28;10001579;-49
2022/06/02 05:32:59;;;;;;;18.80;15.70;;;;;;;11.56;87.83;102013.81;5028176;28;20064;-49
2022/06/02 05:36:05;;;;;;;19.73;14.80;;;;;;;11.60;87.47;102020.44;5029030;28;20050;-49
2022/06/02 05:39:18;;;;;;;19.75;14.63;;;;;;;11.69;87.09;102024.44;5020939;28;20057;-52
2022/06/02 05:42:18;;;;;;;17.27;14.18;;;;;;;11.80;86.44;102026.25;5012908;28;20515;-46
2022/06/02 05:45:09;;;;;;;20.70;14.63;;;;;;;11.85;86.25;102023.59;5022297;28;20049;-47
2022/06/02 05:48:23;;;;;;;18.00;15.10;;;;;;;11.89;86.30;102021.25;5031599;28;20053;-49
2022/06/02 05:51:13;;;;;;;17.30;13.73;;;;;;;11.91;86.93;102022.66;5027881;28;20049;-49
2022/06/02 05:54:23;;;;;;;18.73;13.43;;;;;;;11.89;87.13;102030.25;5017262;28;20056;-51
2022/06/02 05:57:32;;;;;;;17.83;13.50;;;;;;;11.91;87.30;102025.38;5022449;28;20575;-48
2022/06/02 06:01:07;;;;;;;16.30;12.38;;;;;;;12.00;86.81;102030.44;5023083;28;20049;-49
2022/06/02 06:04:15;;;;;;;17.50;12.40;;;;;;;12.02;86.78;102031.84;5023040;28;20514;-51
2022/06/02 06:07:39;;;;;;;15.52;11.77;;;;;;;12.08;86.72;102032.75;5017418;28;20500;-48
2022/06/02 06:11:09;;;;;;;14.50;10.82;;;;;;;12.12;85.94;102034.75;5027258;28;20489;-52
2022/06/02 06:14:01;;;;;;;14.60;10.57;;;;;;;12.16;86.79;102040.53;5018554;28;20079;-52
2022/06/02 06:17:01;;;;;;;16.85;11.18;;;;;;;12.18;87.22;102043.84;5023919;28;20054;-52
2022/06/02 06:20:09;;;;;;;13.35;10.43;;;;;;;12.22;86.82;102039.56;5016446;28;20357;-51
2022/06/02 06:23:05;;;;;;;14.35;10.63;;;;;;;12.26;87.03;102046.16;5030830;28;20057;-51
2022/06/02 06:26:33;;;;;;;16.60;11.07;;;;;;;12.24;87.25;102053.78;5020010;28;20064;-49
2022/06/02 06:29:55;;;;;;;14.27;11.15;;;;;;;12.21;88.00;102054.28;5015039;28;20053;-51
2022/06/02 06:33:07;;;;;;;14.82;11.15;;;;;;;12.23;88.16;102052.13;5030067;28;20411;-49
2022/06/02 06:36:07;;;;;;;14.85;11.02;;;;;;;12.27;89.06;102058.75;5028944;28;20052;-49
2022/06/02 06:39:05;;;;;;;11.93;9.60;;;;;;;12.29;88.80;102067.53;5018895;28;20078;-51
2022/06/02 06:42:11;;;;;;;13.43;9.70;;;;;;;12.34;87.92;102053.13;5021283;28;20259;-52
2022/06/02 06:45:18;;;;;;;14.15;9.60;;;;;;;12.38;87.47;102056.19;5015162;28;20134;-51
2022/06/02 06:48:22;;;;;;;14.13;9.48;;;;;;;12.42;87.54;102060.06;5015105;28;20696;-51
2022/06/02 06:50:58;;;;;;;14.63;10.23;;;;;;;12.43;87.54;102067.19;5011075;28;20056;-53
2022/06/02 06:53:53;;;;;;;;;;;;;;;12.45;87.88;102070.50;5013131;28;20054;-51
2022/06/02 06:57:00;;;;;;;13.75;10.30;;;;;;;12.48;87.25;102068.09;5018903;28;19922;-51
2022/06/02 07:00:00;;;;;;;11.50;8.45;;;;;;;12.50;87.20;102068.66;4997094;28;20049;-50
2022/06/02 07:02:59;;;;;;;13.40;7.25;;;;;;;12.57;86.60;102068.50;5015397;28;20045;-47
2022/06/02 07:05:53;;;;;;;12.50;7.57;;;;;;;12.70;85.90;102075.50;5011617;28;20394;-47
2022/06/02 07:09:04;;;;;;;25.90;7.10;;;;;;;12.79;85.04;102077.59;5011137;28;20081;-49
2022/06/02 07:15:37;;;;;;;9.93;7.53;;;;;;;12.94;85.22;102085.19;5016390;28;20484;-50
2022/06/02 07:18:56;;;;;;;19.95;7.60;;;;;;;13.04;84.72;102094.59;5012864;28;20045;-50
2022/06/02 07:22:05;;;;;;;12.55;6.80;;;;;;;13.10;82.26;102094.41;5015405;28;20056;-51
2022/06/02 07:25:07;;;;;;;9.63;5.97;;;;;;;13.11;81.47;102096.06;5018176;28;20080;-51
2022/06/02 07:28:15;;;;;;;9.07;5.30;;;;;;;13.13;80.41;102093.91;5010137;28;20065;-49
2022/06/02 07:31:20;;;;;;;9.55;5.30;;;;;;;13.18;79.31;102101.31;5017732;28;20052;-50
2022/06/02 07:34:18;;;;;;;9.23;5.85;;;;;;;13.21;78.07;102101.66;5020172;28;20045;-50
2022/06/02 07:37:19;;;;;;;10.30;5.57;;;;;;;13.24;78.26;102099.50;5016860;28;20045;-50
2022/06/02 07:40:34;;;;;;;130.93;19.67;;;;;;;13.28;79.44;102117.13;5019768;28;20041;-51
2022/06/02 07:43:30;;;;;;;12.90;6.13;;;;;;;13.34;78.88;102116.06;5013186;28;20433;-51
2022/06/02 07:46:30;;;;;;;8.25;5.90;;;;;;;13.38;78.21;102111.75;5014595;28;20046;-49
2022/06/02 07:49:27;;;;;;;9.52;5.72;;;;;;;13.45;77.69;102112.41;5020240;28;20076;-50
2022/06/02 07:52:33;;;;;;;9.77;6.47;;;;;;;13.47;76.59;102112.97;5012616;28;20511;-49
2022/06/02 07:55:23;;;;;;;;;;;;;;;13.54;76.99;102113.59;5014111;28;20049;-50
2022/06/02 07:58:26;;;;;;;12.27;6.18;;;;;;;13.62;76.76;102104.09;5016588;28;20269;-50
2022/06/02 08:01:20;;;;;;;12.18;5.90;;;;;;;13.62;76.05;102102.19;5012833;28;20057;-50
2022/06/02 08:04:11;;;;;;;9.85;5.75;;;;;;;13.66;76.30;102096.19;5012359;28;20048;-52
2022/06/02 08:07:06;;;;;;;14.68;6.32;;;;;;;13.72;76.72;102106.94;5012688;28;20065;-55
2022/06/02 08:10:19;;;;;;;9.98;5.57;;;;;;;13.78;75.95;102108.66;5011586;28;20058;-51
2022/06/02 08:13:14;;;;;;;10.00;7.60;;;;;;;13.82;75.75;102106.22;5012318;28;20049;-53
2022/06/02 08:16:02;;;;;;;11.13;8.23;;;;;;;13.83;75.85;102114.19;5012781;28;20061;-52
2022/06/02 08:18:59;;;;;;;11.38;7.70;;;;;;;13.88;75.62;102107.09;5012951;28;20052;-51
2022/06/02 08:21:53;;;;;;;10.68;7.50;;;;;;;13.90;74.94;102116.69;5020320;28;20064;-51
2022/06/02 08:24:59;;;;;;;11.35;7.90;;;;;;;13.91;73.83;102114.81;5011938;28;20489;-48
2022/06/02 08:28:09;;;;;;;11.73;8.65;;;;;;;13.95;73.81;102116.78;5012315;28;20334;-51
2022/06/02 08:31:12;;;;;;;9.95;7.47;;;;;;;13.95;73.31;102113.19;5017363;28;20045;-51
2022/06/02 08:34:06;;;;;;;12.93;7.53;;;;;;;13.95;71.72;102125.00;5032238;28;20408;-50
2022/06/02 08:37:06;;;;;;;11.15;7.38;;;;;;;13.99;72.31;102119.81;5018451;28;20046;-51
2022/06/02 08:40:00;;;;;;;10.30;7.38;;;;;;;14.06;71.20;102118.50;5017832;28;20053;-54
2022/06/02 08:42:54;;;;;;;13.07;7.60;;;;;;;14.08;70.58;102123.75;5017930;28;20056;-52
2022/06/02 08:46:03;;;;;;;10.43;7.68;;;;;;;14.09;70.29;102116.34;5031624;28;20056;-52
2022/06/02 08:48:51;;;;;;;13.43;7.82;;;;;;;14.14;70.25;102124.59;5032454;28;20057;-51
2022/06/02 08:52:06;;;;;;;9.82;7.38;;;;;;;14.19;70.73;102125.50;5030312;28;20050;-53
2022/06/02 08:55:19;;;;;;;10.50;7.40;;;;;;;14.25;71.35;102126.34;5030597;28;20076;-53
2022/06/02 08:58:35;;;;;;;10.35;6.80;;;;;;;14.22;70.39;102132.38;5032037;28;20514;-51
2022/06/02 09:01:35;;;;;;;10.05;6.95;;;;;;;14.23;70.01;102128.53;5031980;28;20042;-50
2022/06/02 09:04:52;;;;;;;11.07;7.18;;;;;;;14.25;69.58;102134.59;5036489;28;20095;-53
2022/06/02 09:08:01;;;;;;;9.88;6.60;;;;;;;14.29;69.15;102133.00;5022643;28;20056;-53
2022/06/02 09:11:10;;;;;;;10.80;6.90;;;;;;;14.30;68.53;102128.31;5016666;28;20056;-54
2022/06/02 09:14:25;;;;;;;9.35;6.20;;;;;;;14.29;68.98;102127.50;5024722;28;20045;-48
2022/06/02 09:17:16;;;;;;;9.38;7.22;;;;;;;14.34;69.49;102127.53;5035536;28;20511;-47
2022/06/02 09:20:14;;;;;;;10.88;7.38;;;;;;;14.34;68.82;102130.28;5025116;28;20042;-50
2022/06/02 09:23:14;;;;;;;11.25;7.43;;;;;;;14.31;68.62;102133.56;5014572;28;20053;-50
2022/06/02 09:26:33;;;;;;;11.93;7.68;;;;;;;14.28;67.69;102128.56;5016046;28;20048;-50
2022/06/02 09:29:43;;;;;;;10.30;6.70;;;;;;;14.27;68.26;102124.19;5019599;28;20043;-49
2022/06/02 09:32:59;;;;;;;11.90;7.85;;;;;;;14.26;67.97;102128.00;5029132;28;20408;-51
2022/06/02 09:36:10;;;;;;;11.38;7.00;;;;;;;14.23;67.29;102128.53;5035404;28;20057;-49
2022/06/02 09:39:16;;;;;;;13.82;6.63;;;;;;;14.22;67.52;102129.63;5034443;28;20125;-50
2022/06/02 09:42:09;;;;;;;;;;;;;;;14.23;67.69;102125.78;5033995;28;20064;-49
2022/06/02 09:45:31;;;;;;;9.02;6.22;;;;;;;14.20;65.57;102126.31;5023353;28;20040;-51
2022/06/02 09:49:06;;;;;;;10.82;6.68;;;;;;;14.18;65.32;102132.06;5026083;28;20057;-49
2022/06/02 09:52:19;;;;;;;9.45;7.13;;;;;;;14.19;65.90;102130.13;5034682;28;20052;-49
2022/06/02 09:55:29;;;;;;;11.73;7.05;;;;;;;14.21;65.96;102125.22;5035035;28;20050;-51
2022/06/02 09:58:19;;;;;;;12.77;6.45;;;;;;;14.32;66.71;102116.00;5027979;28;20515;-51
2022/06/02 10:01:25;;;;;;;9.30;6.68;;;;;;;14.47;64.87;102107.88;5023431;28;20050;-48
2022/06/02 10:04:36;;;;;;;9.98;6.55;;;;;;;14.57;65.15;102106.34;5017792;28;20093;-48
2022/06/02 10:07:46;;;;;;;10.80;6.35;;;;;;;14.59;64.39;102113.22;5027960;28;20504;-48
2022/06/02 10:10:55;;;;;;;9.63;6.68;;;;;;;14.73;63.63;102107.28;5031473;28;20061;-50
2022/06/02 10:14:18;;;;;;;10.57;6.53;;;;;;;14.86;63.08;102110.41;5020290;28;20119;-49
2022/06/02 10:17:43;;;;;;;10.27;6.97;;;;;;;14.93;63.39;102112.88;5018549;28;20045;-50
2022/06/02 10:20:40;;;;;;;7.97;5.45;;;;;;;14.99;62.45;102105.53;5024631;28;20128;-50
2022/06/02 10:24:00;;;;;;;17.15;8.25;;;;;;;14.98;62.97;102106.59;5033123;28;20512;-50
2022/06/02 10:27:12;;;;;;;7.05;5.00;;;;;;;14.97;61.47;102110.47;5029583;28;20058;-52
2022/06/02 10:30:25;;;;;;;10.18;5.65;;;;;;;14.97;61.58;102104.97;5018242;28;20049;-50
2022/06/02 10:33:06;;;;;;;13.95;5.32;;;;;;;14.99;62.22;102111.03;5001027;28;20054;-47
2022/06/02 10:36:17;;;;;;;9.38;5.20;;;;;;;15.01;60.97;102106.91;5012856;28;20045;-49
2022/06/02 10:39:32;;;;;;;9.15;4.80;;;;;;;15.14;58.87;102094.63;5034055;28;20095;-49
2022/06/02 10:42:48;;;;;;;7.18;3.95;;;;;;;15.36;55.89;102101.84;4323559;28;10001408;-55
2022/06/02 10:46:18;;;;;;;11.90;4.22;;;;;;;15.56;55.43;102096.41;5028038;28;20485;-50
2022/06/02 10:49:13;;;;;;;7.40;4.30;;;;;;;15.59;54.28;102090.38;4994152;28;20583;-52
2022/06/02 10:52:42;;;;;;;6.78;3.95;;;;;;;15.66;53.43;102085.47;5020774;28;20063;-53
2022/06/02 10:55:57;;;;;;;6.60;3.97;;;;;;;15.76;53.14;102080.00;5021768;28;20467;-50
2022/06/02 10:59:00;;;;;;;;;;;;;;;15.86;52.84;102083.88;5019429;28;20703;-49
2022/06/02 11:02:00;;;;;;;5.15;3.33;;;;;;;15.88;51.68;102081.69;5017521;28;19925;-53
2022/06/02 11:05:08;;;;;;;6.65;3.70;;;;;;;15.92;51.57;102088.28;5030739;28;20059;-49
2022/06/02 11:07:59;;;;;;;8.60;4.03;;;;;;;15.97;54.08;102074.56;5029514;28;20759;-49
2022/06/02 11:10:57;;;;;;;6.15;3.88;;;;;;;15.98;52.71;102077.00;5013361;28;20088;-49
2022/06/02 11:14:14;;;;;;;7.30;4.18;;;;;;;16.01;51.01;102066.56;5008738;28;20046;-50
2022/06/02 11:17:20;;;;;;;5.93;4.00;;;;;;;16.12;51.14;102071.81;5011870;28;20053;-52
2022/06/02 11:20:32;;;;;;;7.90;4.78;;;;;;;16.22;52.54;102072.91;5015852;28;20057;-48
2022/06/02 11:24:05;;;;;;;9.35;5.03;;;;;;;16.29;53.48;102063.28;5029029;28;20113;-51
2022/06/02 11:27:11;;;;;;;9.07;5.50;;;;;;;16.38;52.55;102069.06;5014762;28;20049;-52
2022/06/02 11:30:25;;;;;;;9.15;4.47;;;;;;;16.33;52.83;102071.78;5021777;28;20065;-49
2022/06/02 11:33:35;;;;;;;6.60;4.70;;;;;;;16.28;53.91;102071.78;5013048;28;20054;-50
2022/06/02 11:37:02;;;;;;;10.20;5.45;;;;;;;16.26;54.05;102065.72;5011335;28;20037;-51
2022/06/02 11:39:54;;;;;;;7.72;4.88;;;;;;;16.28;53.66;102067.09;5016818;28;20054;-49
2022/06/02 11:42:55;;;;;;;8.65;5.32;;;;;;;16.28;53.08;102058.84;5016401;28;20053;-51
2022/06/02 11:46:04;;;;;;;10.43;4.70;;;;;;;16.23;54.04;102058.03;5029265;28;20067;-50
2022/06/02 11:49:03;;;;;;;9.10;5.20;;;;;;;16.18;55.67;102064.38;5018218;28;20054;-50
2022/06/02 11:52:05;;;;;;;9.57;5.20;;;;;;;16.15;56.24;102051.19;5020989;28;20045;-55
2022/06/02 11:55:02;;;;;;;7.05;4.72;;;;;;;16.12;54.01;102055.31;5008847;28;20050;-54
2022/06/02 11:58:13;;;;;;;10.60;4.78;;;;;;;16.10;54.10;102056.69;5022853;28;20059;-52
2022/06/02 12:01:21;;;;;;;11.35;5.60;;;;;;;16.11;53.41;102048.13;5009029;28;20061;-54
2022/06/02 12:04:31;;;;;;;9.95;5.55;;;;;;;16.19;53.15;102055.84;5027769;28;20381;-53
2022/06/02 12:07:29;;;;;;;7.70;4.88;;;;;;;16.28;52.82;102053.34;5016111;28;20480;-54
2022/06/02 12:10:32;;;;;;;9.70;5.63;;;;;;;16.37;55.86;102057.19;5019568;28;20758;-54
2022/06/02 12:13:51;;;;;;;9.07;6.68;;;;;;;16.45;52.43;102052.25;5020173;28;20061;-52
2022/06/02 12:16:50;;;;;;;8.77;5.90;;;;;;;16.42;51.25;102042.63;5011499;28;20042;-54
2022/06/02 12:20:01;;;;;;;11.32;6.15;;;;;;;16.47;52.29;102037.09;5017988;28;20041;-56
2022/06/02 12:23:13;;;;;;;10.40;5.82;;;;;;;16.49;51.34;102034.91;5021469;28;20056;-55
2022/06/02 12:26:03;;;;;;;9.57;5.95;;;;;;;16.44;51.26;102029.41;5028031;28;20146;-52
2022/06/02 12:29:09;;;;;;;10.25;6.22;;;;;;;16.41;50.44;102027.22;5022202;28;20045;-54
2022/06/02 12:32:49;;;;;;;8.13;5.15;;;;;;;16.42;52.46;102028.88;5022198;28;20054;-54
2022/06/02 12:35:42;;;;;;;8.07;5.88;;;;;;;16.50;51.37;102031.06;5011592;28;20108;-50
2022/06/02 12:38:39;;;;;;;9.13;5.97;;;;;;;16.52;50.14;102026.09;5023329;28;20042;-50
2022/06/02 12:41:40;;;;;;;8.32;5.78;;;;;;;16.68;50.21;102018.63;5026839;28;20049;-51
2022/06/02 12:44:53;;;;;;;8.00;5.25;;;;;;;16.90;50.29;102012.78;5030073;28;20049;-51
2022/06/02 12:48:03;;;;;;;9.65;5.75;;;;;;;17.03;50.63;102011.38;5012755;28;20049;-50
2022/06/02 12:51:28;;;;;;;8.43;5.20;;;;;;;17.04;49.25;102002.00;5026851;28;20053;-49
2022/06/02 12:54:50;;;;;;;8.50;4.90;;;;;;;17.04;49.91;102000.06;5025852;28;20053;-55
2022/06/02 12:58:17;;;;;;;10.63;5.18;;;;;;;17.09;48.72;101995.66;5016898;28;20041;-51
2022/06/02 13:01:32;;;;;;;9.52;5.57;;;;;;;17.12;48.23;102001.41;5034304;28;20042;-51
2022/06/02 13:04:37;;;;;;;7.40;5.00;;;;;;;17.10;47.11;102000.03;5012724;28;20058;-51
2022/06/02 13:07:56;;;;;;;9.93;5.10;;;;;;;17.10;47.96;101997.28;5028139;28;20499;-50
2022/06/02 13:11:07;;;;;;;8.07;5.40;;;;;;;17.12;48.99;101995.06;5016621;28;20058;-51
2022/06/02 13:13:55;;;;;;;9.68;5.60;;;;;;;17.14;49.25;101987.34;5035762;28;20056;-53
2022/06/02 13:17:29;;;;;;;8.50;5.70;;;;;;;17.16;48.74;101985.16;5031808;28;20780;-50
2022/06/02 13:20:31;;;;;;;7.53;5.38;;;;;;;17.21;47.49;101987.88;5028565;28;20088;-49
2022/06/02 13:23:54;;;;;;;7.75;4.80;;;;;;;17.25;46.24;101983.44;5025094;28;20053;-53
2022/06/02 13:27:19;;;;;;;6.55;4.45;;;;;;;17.43;48.45;101982.75;5026382;28;20084;-50
2022/06/02 13:30:10;;;;;;;;;;;;;;;17.51;46.87;101988.78;5016152;28;20054;-50
2022/06/02 13:33:23;;;;;;;7.60;4.70;;;;;;;17.50;48.02;101984.38;5029185;28;19921;-50
2022/06/02 13:36:29;;;;;;;6.75;4.50;;;;;;;17.55;48.34;101987.91;5033451;28;20045;-50
2022/06/02 13:39:19;;;;;;;7.32;4.28;;;;;;;17.60;51.01;101989.81;5028595;28;20041;-50
2022/06/02 13:42:26;;;;;;;7.05;4.28;;;;;;;17.58;47.80;101992.03;5035219;28;20488;-50
2022/06/02 13:45:40;;;;;;;6.22;3.92;;;;;;;17.64;48.07;101985.38;5035333;28;20045;-49
2022/06/02 13:48:54;;;;;;;5.20;3.88;;;;;;;17.67;48.45;101982.03;5022488;28;20624;-50
2022/06/02 13:51:53;;;;;;;5.82;3.90;;;;;;;17.76;48.34;101974.81;5030983;28;20049;-49
2022/06/02 13:58:34;;;;;;;5.40;4.10;;;;;;;17.88;48.47;101980.78;5027753;28;20045;-49
2022/06/02 14:01:43;;;;;;;5.60;4.03;;;;;;;17.84;48.26;101981.66;5035554;28;20288;-52
2022/06/02 14:04:50;;;;;;;5.20;3.65;;;;;;;17.71;47.82;101980.34;5021804;28;20041;-46
2022/06/02 14:07:57;;;;;;;8.02;4.18;;;;;;;17.56;48.21;101977.72;5026442;28;20061;-48
2022/06/02 14:11:26;;;;;;;7.82;3.95;;;;;;;17.53;48.34;101978.28;5031249;28;20049;-49
2022/06/02 14:14:35;;;;;;;6.03;3.60;;;;;;;17.47;48.40;101977.50;5016682;28;20052;-47
2022/06/02 14:17:50;;;;;;;8.88;4.15;;;;;;;17.60;47.80;101973.28;5008625;28;20044;-52
2022/06/02 14:20:46;;;;;;;5.60;3.28;;;;;;;17.61;47.16;101969.44;5034809;28;20053;-48
2022/06/02 14:23:50;;;;;;;4.57;3.22;;;;;;;17.63;47.11;101968.03;5034847;28;20409;-49
2022/06/02 14:27:03;;;;;;;6.30;3.65;;;;;;;17.72;48.56;101965.44;5013550;28;20042;-48
2022/06/02 14:30:10;;;;;;;5.93;3.22;;;;;;;17.81;49.60;101961.00;5014574;28;20137;-49
2022/06/02 14:33:15;;;;;;;6.43;3.47;;;;;;;17.85;47.35;101959.31;5012936;28;20046;-51